createdAt,value
2023-09-27T00:00:07.277Z,57.34
2023-09-27T00:02:34.175Z,57.42
2023-09-27T00:05:01.763Z,57.46
2023-09-27T00:07:29.282Z,57.55
2023-09-27T00:09:56.258Z,57.35
2023-09-27T00:12:23.110Z,57.57
2023-09-27T00:14:49.931Z,57.59
2023-09-27T00:17:16.840Z,57.72
2023-09-27T00:19:43.641Z,57.68
2023-09-27T00:22:11.012Z,57.69
2023-09-27T00:24:38.088Z,57.65
2023-09-27T00:27:04.879Z,57.39
2023-09-27T00:29:31.822Z,57.55
2023-09-27T00:31:58.802Z,57.70
2023-09-27T00:34:25.804Z,57.61
2023-09-27T00:36:52.613Z,57.58
2023-09-27T00:39:19.409Z,57.65
2023-09-27T00:41:46.214Z,57.61
2023-09-27T00:44:13.088Z,57.74
2023-09-27T00:46:40.580Z,57.86
2023-09-27T00:49:09.513Z,57.90
2023-09-27T00:51:36.792Z,57.79
2023-09-27T00:54:04.015Z,57.99
2023-09-27T00:56:31.742Z,57.82
2023-09-27T00:58:59.287Z,57.76
2023-09-27T01:01:27.585Z,57.90
2023-09-27T01:03:55.115Z,58.00
2023-09-27T01:06:22.122Z,58.08
2023-09-27T01:08:48.983Z,58.23
2023-09-27T01:11:16.273Z,58.14
2023-09-27T01:13:43.344Z,58.10
2023-09-27T01:16:10.345Z,58.03
2023-09-27T01:18:38.350Z,57.89
2023-09-27T01:21:05.189Z,57.92
2023-09-27T01:23:32.186Z,57.97
2023-09-27T01:26:01.137Z,58.01
2023-09-27T01:28:28.420Z,58.09
2023-09-27T01:30:55.275Z,58.05
2023-09-27T01:33:22.185Z,58.02
2023-09-27T01:35:49.322Z,58.20
2023-09-27T01:38:16.194Z,58.20
2023-09-27T01:40:45.575Z,58.18
2023-09-27T01:43:13.191Z,58.28
2023-09-27T01:45:40.434Z,58.17
2023-09-27T01:48:07.676Z,58.25
2023-09-27T01:50:36.254Z,58.27
2023-09-27T01:53:04.236Z,58.27
2023-09-27T01:55:32.253Z,58.26
2023-09-27T01:58:00.644Z,58.12
2023-09-27T02:00:27.547Z,58.38
2023-09-27T02:03:00.150Z,58.23
2023-09-27T02:05:30.435Z,58.35
2023-09-27T02:07:57.960Z,58.11
2023-09-27T02:10:25.279Z,58.26
2023-09-27T02:12:52.141Z,57.97
2023-09-27T02:15:19.198Z,58.20
2023-09-27T02:17:46.223Z,58.08
2023-09-27T02:20:15.680Z,57.95
2023-09-27T02:22:43.049Z,58.05
2023-09-27T02:25:14.994Z,58.13
2023-09-27T02:27:43.296Z,57.88
2023-09-27T02:30:15.443Z,57.97
2023-09-27T02:32:43.904Z,58.09
2023-09-27T02:35:12.258Z,58.05
2023-09-27T02:37:44.693Z,57.98
2023-09-27T02:40:15.581Z,58.05
2023-09-27T02:42:49.457Z,58.21
2023-09-27T02:45:16.411Z,57.94
2023-09-27T02:47:48.034Z,57.93
2023-09-27T02:50:16.128Z,57.77
2023-09-27T02:52:44.830Z,57.76
2023-09-27T02:55:12.500Z,57.83
2023-09-27T02:57:40.523Z,57.67
2023-09-27T03:00:09.490Z,57.83
2023-09-27T03:02:36.526Z,57.62
2023-09-27T03:05:08.294Z,57.83
2023-09-27T03:07:35.201Z,57.78
2023-09-27T03:10:04.028Z,57.90
2023-09-27T03:12:30.833Z,57.70
2023-09-27T03:14:57.670Z,57.63
2023-09-27T03:17:24.579Z,57.79
2023-09-27T03:19:51.425Z,57.87
2023-09-27T03:22:18.352Z,57.81
2023-09-27T03:24:45.538Z,57.79
2023-09-27T03:27:12.363Z,57.79
2023-09-27T03:29:40.778Z,57.80
2023-09-27T03:32:07.721Z,57.75
2023-09-27T03:34:34.607Z,57.73
2023-09-27T03:37:01.453Z,57.60
2023-09-27T03:39:29.889Z,57.48
2023-09-27T03:41:57.479Z,57.69
2023-09-27T03:44:24.991Z,57.66
2023-09-27T03:46:51.986Z,57.70
2023-09-27T03:49:18.897Z,57.61
2023-09-27T03:51:45.798Z,57.76
2023-09-27T03:54:12.614Z,57.82
2023-09-27T03:56:39.483Z,57.74
2023-09-27T03:59:06.371Z,57.92
2023-09-27T04:01:33.265Z,57.75
2023-09-27T04:04:00.432Z,57.90
2023-09-27T04:06:27.503Z,57.80
2023-09-27T04:08:54.414Z,58.11
2023-09-27T04:11:21.462Z,58.19
2023-09-27T04:13:49.613Z,58.34
2023-09-27T04:16:16.514Z,58.24
2023-09-27T04:18:43.823Z,58.22
2023-09-27T04:21:12.097Z,58.25
2023-09-27T04:23:39.356Z,58.32
2023-09-27T04:26:06.804Z,58.27
2023-09-27T04:28:34.947Z,58.06
2023-09-27T04:31:02.023Z,58.34
2023-09-27T04:33:28.879Z,58.12
2023-09-27T04:35:55.733Z,58.30
2023-09-27T04:38:22.663Z,58.29
2023-09-27T04:40:49.673Z,58.41
2023-09-27T04:43:16.733Z,58.24
2023-09-27T04:45:43.709Z,58.46
2023-09-27T04:48:10.767Z,58.22
2023-09-27T04:50:37.667Z,58.47
2023-09-27T04:53:04.737Z,58.25
2023-09-27T04:55:31.724Z,58.16
2023-09-27T04:57:58.537Z,58.12
2023-09-27T05:00:25.620Z,58.27
2023-09-27T05:02:53.370Z,58.14
2023-09-27T05:05:20.590Z,58.21
2023-09-27T05:07:47.860Z,58.21
2023-09-27T05:10:15.513Z,58.19
2023-09-27T05:12:42.449Z,58.31
2023-09-27T05:15:13.033Z,58.28
2023-09-27T05:17:39.996Z,58.18
2023-09-27T05:20:10.850Z,58.34
2023-09-27T05:22:38.691Z,58.18
2023-09-27T05:25:08.026Z,58.27
2023-09-27T05:27:35.481Z,58.15
2023-09-27T05:30:02.643Z,58.11
2023-09-27T05:32:29.513Z,58.09
2023-09-27T05:34:56.659Z,58.13
2023-09-27T05:37:24.359Z,58.32
2023-09-27T05:39:51.224Z,58.28
2023-09-27T05:42:18.067Z,58.31
2023-09-27T05:44:44.950Z,58.20
2023-09-27T05:47:11.845Z,58.20
2023-09-27T05:49:39.266Z,58.39
2023-09-27T05:52:06.740Z,58.64
2023-09-27T05:54:33.979Z,58.39
2023-09-27T05:57:01.126Z,58.54
2023-09-27T05:59:28.075Z,58.63
2023-09-27T06:01:55.977Z,58.83
2023-09-27T06:04:23.126Z,58.73
2023-09-27T06:06:50.754Z,58.75
2023-09-27T06:09:19.058Z,58.62
2023-09-27T06:11:47.582Z,58.94
2023-09-27T06:14:14.446Z,59.13
2023-09-27T06:16:41.403Z,58.90
2023-09-27T06:19:11.039Z,59.13
2023-09-27T06:21:38.494Z,59.04
2023-09-27T06:24:09.003Z,59.06
2023-09-27T06:26:35.916Z,59.27
2023-09-27T06:29:02.853Z,59.42
2023-09-27T06:31:30.392Z,59.91
2023-09-27T06:33:57.422Z,60.17
2023-09-27T06:36:24.334Z,60.10
2023-09-27T06:38:51.614Z,60.23
2023-09-27T06:41:18.897Z,60.61
2023-09-27T06:43:45.770Z,60.18
2023-09-27T06:46:15.113Z,60.44
2023-09-27T06:48:44.686Z,60.60
2023-09-27T06:51:14.628Z,60.79
2023-09-27T06:53:43.415Z,60.71
2023-09-27T06:56:10.509Z,61.07
2023-09-27T06:58:38.552Z,61.23
2023-09-27T07:01:05.518Z,60.88
2023-09-27T07:03:34.893Z,61.19
2023-09-27T07:06:03.640Z,61.11
2023-09-27T07:08:31.241Z,60.82
2023-09-27T07:11:09.388Z,60.87
2023-09-27T07:13:38.360Z,60.78
2023-09-27T07:16:27.846Z,60.82
2023-09-27T07:19:04.745Z,61.12
2023-09-27T07:21:32.260Z,60.89
2023-09-27T07:23:59.050Z,60.89
2023-09-27T07:26:25.879Z,61.07
2023-09-27T07:28:53.020Z,60.89
2023-09-27T07:31:21.103Z,60.96
2023-09-27T07:33:56.164Z,61.19
2023-09-27T07:36:26.232Z,61.37
2023-09-27T07:38:53.637Z,61.03
2023-09-27T07:41:21.547Z,60.72
2023-09-27T07:43:51.847Z,60.23
2023-09-27T07:46:19.995Z,59.69
2023-09-27T07:48:46.965Z,58.67
2023-09-27T07:51:15.272Z,57.96
2023-09-27T07:53:42.445Z,57.23
2023-09-27T07:56:11.548Z,57.16
2023-09-27T07:58:42.949Z,57.22
2023-09-27T08:01:09.891Z,57.58
2023-09-27T08:03:37.007Z,57.59
2023-09-27T08:06:05.724Z,57.68
2023-09-27T08:08:32.631Z,58.14
2023-09-27T08:10:59.504Z,58.20
2023-09-27T08:13:29.243Z,58.43
2023-09-27T08:15:56.314Z,58.60
2023-09-27T08:18:23.284Z,58.94
2023-09-27T08:20:51.051Z,59.09
2023-09-27T08:23:17.942Z,59.31
2023-09-27T08:25:44.976Z,59.48
2023-09-27T08:28:11.862Z,59.60
2023-09-27T08:30:38.879Z,59.75
2023-09-27T08:33:05.905Z,59.56
2023-09-27T08:35:33.118Z,59.58
2023-09-27T08:38:00.587Z,59.65
2023-09-27T08:40:27.654Z,59.96
2023-09-27T08:42:59.272Z,59.83
2023-09-27T08:45:27.499Z,59.92
2023-09-27T08:47:55.591Z,60.36
2023-09-27T08:50:24.853Z,59.75
2023-09-27T08:52:52.880Z,59.83
2023-09-27T08:55:21.033Z,59.48
2023-09-27T08:57:52.801Z,59.74
2023-09-27T09:00:26.400Z,59.69
2023-09-27T09:02:59.220Z,59.93
2023-09-27T09:05:30.038Z,59.87
2023-09-27T09:08:05.102Z,59.85
2023-09-27T09:10:32.311Z,59.64
2023-09-27T09:13:02.278Z,59.36
2023-09-27T09:15:37.814Z,58.88
2023-09-27T09:18:07.880Z,58.53
2023-09-27T09:20:50.045Z,58.17
2023-09-27T09:23:39.872Z,58.16
2023-09-27T09:26:12.436Z,58.04
2023-09-27T09:28:57.498Z,58.57
2023-09-27T09:31:27.423Z,58.17
2023-09-27T09:34:08.664Z,57.98
2023-09-27T09:36:37.918Z,58.00
2023-09-27T09:39:15.271Z,57.90
2023-09-27T09:41:50.662Z,57.81
2023-09-27T09:44:26.116Z,58.07
2023-09-27T09:46:53.582Z,58.09
2023-09-27T09:49:22.474Z,57.60
2023-09-27T09:51:54.094Z,57.40
2023-09-27T09:54:30.424Z,56.72
2023-09-27T09:57:08.061Z,56.73
2023-09-27T10:00:13.422Z,57.03
2023-09-27T10:02:52.935Z,56.91
2023-09-27T10:05:22.590Z,56.61
2023-09-27T10:07:51.941Z,56.95
2023-09-27T10:10:20.293Z,57.00
2023-09-27T10:12:53.067Z,56.63
2023-09-27T10:15:21.946Z,56.42
2023-09-27T10:17:48.992Z,56.45
2023-09-27T10:20:25.242Z,56.51
2023-09-27T10:22:55.140Z,56.71
2023-09-27T10:25:25.081Z,56.87
2023-09-27T10:28:05.429Z,56.70
2023-09-27T10:30:41.536Z,56.63
2023-09-27T10:33:17.805Z,56.32
2023-09-27T10:36:14.191Z,56.26
2023-09-27T10:38:44.140Z,55.92
2023-09-27T10:41:34.209Z,56.15
2023-09-27T10:44:03.066Z,55.76
2023-09-27T10:46:48.421Z,55.73
2023-09-27T10:49:27.038Z,55.67
2023-09-27T10:52:05.992Z,55.39
2023-09-27T10:54:34.818Z,55.62
2023-09-27T10:57:03.544Z,55.53
2023-09-27T10:59:30.820Z,55.46
2023-09-27T11:02:00.351Z,55.74
2023-09-27T11:04:28.179Z,54.97
2023-09-27T11:06:56.379Z,54.59
2023-09-27T11:09:24.764Z,54.31
2023-09-27T11:11:53.227Z,54.52
2023-09-27T11:14:35.617Z,53.81
2023-09-27T11:17:26.431Z,53.52
2023-09-27T11:19:54.027Z,53.56
2023-09-27T11:22:31.237Z,53.46
2023-09-27T11:24:58.347Z,53.45
2023-09-27T11:27:25.349Z,53.44
2023-09-27T11:29:53.672Z,53.47
2023-09-27T11:32:25.064Z,53.60
2023-09-27T11:34:59.319Z,53.49
2023-09-27T11:37:27.306Z,53.54
2023-09-27T11:39:56.258Z,53.58
2023-09-27T11:42:24.953Z,53.50
2023-09-27T11:45:09.602Z,53.43
2023-09-27T11:47:50.020Z,54.62
2023-09-27T11:50:18.753Z,53.99
2023-09-27T11:52:48.089Z,53.77
2023-09-27T11:55:19.928Z,53.43
2023-09-27T11:57:47.334Z,53.57
2023-09-27T12:00:16.556Z,53.52
2023-09-27T12:02:56.364Z,53.18
2023-09-27T12:05:24.775Z,53.61
2023-09-27T12:07:52.087Z,53.15
2023-09-27T12:10:18.969Z,53.54
2023-09-27T12:12:45.768Z,53.34
2023-09-27T12:15:12.719Z,53.16
2023-09-27T12:17:39.720Z,53.05
2023-09-27T12:20:11.003Z,53.17
2023-09-27T12:22:43.514Z,53.04
2023-09-27T12:25:10.547Z,52.97
2023-09-27T12:27:37.634Z,52.72
2023-09-27T12:30:06.298Z,52.46
2023-09-27T12:32:33.318Z,52.33
2023-09-27T12:35:00.258Z,52.17
2023-09-27T12:37:27.068Z,52.22
2023-09-27T12:39:54.905Z,51.55
2023-09-27T12:42:21.895Z,50.80
2023-09-27T12:44:49.712Z,50.90
2023-09-27T12:47:17.191Z,50.35
2023-09-27T12:49:43.992Z,50.06
2023-09-27T12:52:10.817Z,50.82
2023-09-27T12:54:37.729Z,50.96
2023-09-27T12:57:04.568Z,51.15
2023-09-27T12:59:31.446Z,50.87
2023-09-27T13:01:58.546Z,50.51
2023-09-27T13:04:25.471Z,50.45
2023-09-27T13:06:52.710Z,50.03
2023-09-27T13:09:21.756Z,50.17
2023-09-27T13:11:48.663Z,50.41
2023-09-27T13:14:15.636Z,49.88
2023-09-27T13:16:43.255Z,50.26
2023-09-27T13:19:11.004Z,50.11
2023-09-27T13:21:37.918Z,50.08
2023-09-27T13:24:05.286Z,50.28
2023-09-27T13:26:32.163Z,50.44
2023-09-27T13:28:59.086Z,50.18
2023-09-27T13:31:32.344Z,49.93
2023-09-27T13:34:10.435Z,49.35
2023-09-27T13:36:40.990Z,49.24
2023-09-27T13:39:14.763Z,49.39
2023-09-27T13:41:45.515Z,49.02
2023-09-27T13:44:13.891Z,49.50
2023-09-27T13:46:41.533Z,48.56
2023-09-27T13:49:08.997Z,48.30
2023-09-27T13:51:37.251Z,48.71
2023-09-27T13:54:08.577Z,49.11
2023-09-27T13:56:37.992Z,48.69
2023-09-27T13:59:05.955Z,48.61
2023-09-27T14:01:33.033Z,48.78
2023-09-27T14:04:01.974Z,48.60
2023-09-27T14:06:28.880Z,48.21
2023-09-27T14:08:56.167Z,48.11
2023-09-27T14:11:23.836Z,48.01
2023-09-27T14:13:51.134Z,48.01
2023-09-27T14:16:18.301Z,47.74
2023-09-27T14:18:45.697Z,47.62
2023-09-27T14:21:13.686Z,47.47
2023-09-27T14:23:42.943Z,47.65
2023-09-27T14:26:10.328Z,47.14
2023-09-27T14:28:37.441Z,47.14
2023-09-27T14:31:04.411Z,47.07
2023-09-27T14:33:31.401Z,47.53
2023-09-27T14:35:58.500Z,47.35
2023-09-27T14:38:27.168Z,47.73
2023-09-27T14:40:54.049Z,47.62
2023-09-27T14:43:20.965Z,47.88
2023-09-27T14:45:50.372Z,47.92
2023-09-27T14:48:18.274Z,48.04
2023-09-27T14:50:45.147Z,47.65
2023-09-27T14:53:12.319Z,48.06
2023-09-27T14:55:39.164Z,48.03
2023-09-27T14:58:06.076Z,47.68
2023-09-27T15:00:32.979Z,48.01
2023-09-27T15:03:00.737Z,47.65
2023-09-27T15:05:27.804Z,48.15
2023-09-27T15:07:54.761Z,48.14
2023-09-27T15:10:21.958Z,48.56
2023-09-27T15:12:48.851Z,48.38
2023-09-27T15:15:15.716Z,48.10
2023-09-27T15:17:44.575Z,47.96
2023-09-27T15:20:13.455Z,48.45
2023-09-27T15:22:41.700Z,48.31
2023-09-27T15:25:10.547Z,48.73
2023-09-27T15:27:37.443Z,48.82
2023-09-27T15:30:04.925Z,49.14
2023-09-27T15:32:31.788Z,48.96
2023-09-27T15:34:59.215Z,49.14
2023-09-27T15:37:26.590Z,49.15
2023-09-27T15:39:53.407Z,49.25
2023-09-27T15:42:20.207Z,48.98
2023-09-27T15:44:47.664Z,49.19
2023-09-27T15:47:15.463Z,48.84
2023-09-27T15:49:42.365Z,49.13
2023-09-27T15:52:09.894Z,49.43
2023-09-27T15:54:36.867Z,49.72
2023-09-27T15:57:03.738Z,49.33
2023-09-27T15:59:30.557Z,49.69
2023-09-27T16:01:57.804Z,49.56
2023-09-27T16:04:26.369Z,49.86
2023-09-27T16:06:54.908Z,49.93
2023-09-27T16:09:21.865Z,49.82
2023-09-27T16:11:49.317Z,49.97
2023-09-27T16:14:16.140Z,49.90
2023-09-27T16:16:43.063Z,50.02
2023-09-27T16:19:09.891Z,50.12
2023-09-27T16:21:36.729Z,50.56
2023-09-27T16:24:04.186Z,50.26
2023-09-27T16:26:31.283Z,50.62
2023-09-27T16:28:58.144Z,50.57
2023-09-27T16:31:26.710Z,51.17
2023-09-27T16:33:55.435Z,51.32
2023-09-27T16:36:22.565Z,50.90
2023-09-27T16:38:49.464Z,51.38
2023-09-27T16:41:20.559Z,51.06
2023-09-27T16:43:48.385Z,51.44
2023-09-27T16:46:15.304Z,51.64
2023-09-27T16:48:42.530Z,51.58
2023-09-27T16:51:09.354Z,51.88
2023-09-27T16:53:36.156Z,52.12
2023-09-27T16:56:03.044Z,51.88
2023-09-27T16:58:29.897Z,52.14
2023-09-27T17:00:56.904Z,52.27
2023-09-27T17:03:23.832Z,52.09
2023-09-27T17:05:50.844Z,52.00
2023-09-27T17:08:19.504Z,52.18
2023-09-27T17:10:46.929Z,52.14
2023-09-27T17:13:13.757Z,52.35
2023-09-27T17:15:45.287Z,52.35
2023-09-27T17:18:12.432Z,52.43
2023-09-27T17:20:39.314Z,52.52
2023-09-27T17:23:06.192Z,52.83
2023-09-27T17:25:33.158Z,52.52
2023-09-27T17:28:00.008Z,52.99
2023-09-27T17:30:26.899Z,52.58
2023-09-27T17:32:53.819Z,52.92
2023-09-27T17:35:21.695Z,53.09
2023-09-27T17:37:48.504Z,52.94
2023-09-27T17:40:15.387Z,53.30
2023-09-27T17:42:43.550Z,53.05
2023-09-27T17:45:10.473Z,53.27
2023-09-27T17:47:37.330Z,53.28
2023-09-27T17:50:04.641Z,53.56
2023-09-27T17:52:31.574Z,53.63
2023-09-27T17:54:58.541Z,53.64
2023-09-27T17:57:25.580Z,53.86
2023-09-27T17:59:52.446Z,53.90
2023-09-27T18:02:19.820Z,53.84
2023-09-27T18:04:46.902Z,54.00
2023-09-27T18:07:13.793Z,53.97
2023-09-27T18:09:40.633Z,54.08
2023-09-27T18:12:07.640Z,54.23
2023-09-27T18:14:34.541Z,54.28
2023-09-27T18:17:01.441Z,54.44
2023-09-27T18:19:28.544Z,54.52
2023-09-27T18:21:55.411Z,54.44
2023-09-27T18:24:22.308Z,54.69
2023-09-27T18:26:49.207Z,54.32
2023-09-27T18:29:16.142Z,54.42
2023-09-27T18:31:45.615Z,54.44
2023-09-27T18:34:12.903Z,54.71
2023-09-27T18:36:39.763Z,54.77
2023-09-27T18:39:07.261Z,54.83
2023-09-27T18:41:34.102Z,55.02
2023-09-27T18:44:00.997Z,54.83
2023-09-27T18:46:27.974Z,55.28
2023-09-27T18:48:55.143Z,55.34
2023-09-27T18:51:23.431Z,55.20
2023-09-27T18:53:52.116Z,55.36
2023-09-27T18:56:20.961Z,55.20
2023-09-27T18:58:48.157Z,55.31
2023-09-27T19:01:15.987Z,55.36
2023-09-27T19:03:42.900Z,55.44
2023-09-27T19:06:16.112Z,55.46
2023-09-27T19:08:43.277Z,55.59
2023-09-27T19:11:13.954Z,55.54
2023-09-27T19:13:40.822Z,55.28
2023-09-27T19:16:07.762Z,55.55
2023-09-27T19:18:34.744Z,55.62
2023-09-27T19:21:01.584Z,55.74
2023-09-27T19:23:28.407Z,55.89
2023-09-27T19:25:55.891Z,55.82
2023-09-27T19:28:23.573Z,55.75
2023-09-27T19:30:50.824Z,55.83
2023-09-27T19:33:17.687Z,55.84
2023-09-27T19:35:45.886Z,55.89
2023-09-27T19:38:13.069Z,55.72
2023-09-27T19:40:40.227Z,56.06
2023-09-27T19:43:07.162Z,56.03
2023-09-27T19:45:34.163Z,55.89
2023-09-27T19:48:01.747Z,55.79
2023-09-27T19:50:28.652Z,55.73
2023-09-27T19:52:55.525Z,56.03
2023-09-27T19:55:22.443Z,55.92
2023-09-27T19:57:49.336Z,55.76
2023-09-27T20:00:18.629Z,55.77
2023-09-27T20:02:47.117Z,55.92
2023-09-27T20:05:13.981Z,55.80
2023-09-27T20:07:46.500Z,56.07
2023-09-27T20:10:13.357Z,55.94
2023-09-27T20:12:40.202Z,56.01
2023-09-27T20:15:12.359Z,56.03
2023-09-27T20:17:40.325Z,55.96
2023-09-27T20:20:08.914Z,56.10
2023-09-27T20:22:35.853Z,56.03
2023-09-27T20:25:04.121Z,55.96
2023-09-27T20:27:31.385Z,55.87
2023-09-27T20:29:58.188Z,55.90
2023-09-27T20:32:25.029Z,56.05
2023-09-27T20:34:52.348Z,56.15
2023-09-27T20:37:19.202Z,56.38
2023-09-27T20:39:46.011Z,56.22
2023-09-27T20:42:13.723Z,56.10
2023-09-27T20:44:40.707Z,56.06
2023-09-27T20:47:07.579Z,56.17
2023-09-27T20:49:34.862Z,56.11
2023-09-27T20:52:01.770Z,56.19
2023-09-27T20:54:28.664Z,56.22
2023-09-27T20:56:55.456Z,56.35
2023-09-27T20:59:22.326Z,56.25
2023-09-27T21:01:50.262Z,56.31
2023-09-27T21:04:17.259Z,55.99
2023-09-27T21:06:44.370Z,56.37
2023-09-27T21:09:11.484Z,56.47
2023-09-27T21:11:38.395Z,56.24
2023-09-27T21:14:05.509Z,56.17
2023-09-27T21:16:33.669Z,56.17
2023-09-27T21:19:01.754Z,56.37
2023-09-27T21:21:30.424Z,56.23
2023-09-27T21:23:57.481Z,56.46
2023-09-27T21:26:24.921Z,56.22
2023-09-27T21:28:52.166Z,56.30
2023-09-27T21:31:19.780Z,56.42
2023-09-27T21:33:46.985Z,56.23
2023-09-27T21:36:15.232Z,56.42
2023-09-27T21:38:42.307Z,56.55
2023-09-27T21:41:09.170Z,56.37
2023-09-27T21:43:36.620Z,56.29
2023-09-27T21:46:06.787Z,56.56
2023-09-27T21:48:33.613Z,56.27
2023-09-27T21:51:00.425Z,56.56
2023-09-27T21:53:27.238Z,56.72
2023-09-27T21:55:54.194Z,56.67
2023-09-27T21:58:21.239Z,56.72
2023-09-27T22:00:48.106Z,56.55
2023-09-27T22:03:18.093Z,56.50
2023-09-27T22:05:45.162Z,56.64
2023-09-27T22:08:17.855Z,56.76
2023-09-27T22:10:45.560Z,56.55
2023-09-27T22:13:24.511Z,56.81
2023-09-27T22:16:11.835Z,56.80
2023-09-27T22:18:39.843Z,56.55
2023-09-27T22:21:18.592Z,56.81
2023-09-27T22:23:47.344Z,56.97
2023-09-27T22:26:18.499Z,56.69
2023-09-27T22:28:48.454Z,56.74
2023-09-27T22:31:27.268Z,56.71
2023-09-27T22:33:57.739Z,56.55
2023-09-27T22:36:26.483Z,56.61
2023-09-27T22:38:53.341Z,56.83
2023-09-27T22:41:29.835Z,56.53
2023-09-27T22:43:57.499Z,56.75
2023-09-27T22:46:24.484Z,56.54
2023-09-27T22:48:52.382Z,56.52
2023-09-27T22:51:20.169Z,56.77
2023-09-27T22:53:47.062Z,56.91
2023-09-27T22:56:13.971Z,57.01
2023-09-27T22:58:40.853Z,56.78
2023-09-27T23:01:30.487Z,57.14
2023-09-27T23:03:59.343Z,56.63
2023-09-27T23:06:26.182Z,56.82
2023-09-27T23:08:53.217Z,56.80
2023-09-27T23:11:20.825Z,56.95
2023-09-27T23:13:58.724Z,56.84
2023-09-27T23:16:34.266Z,56.84
2023-09-27T23:19:04.915Z,56.78
2023-09-27T23:21:31.743Z,56.67
2023-09-27T23:24:11.571Z,56.92
2023-09-27T23:26:56.823Z,57.01
2023-09-27T23:29:31.624Z,56.87
2023-09-27T23:32:23.563Z,56.97
2023-09-27T23:34:51.625Z,56.94
2023-09-27T23:37:29.517Z,57.00
2023-09-27T23:39:56.316Z,57.05
2023-09-27T23:42:23.451Z,57.07
2023-09-27T23:45:14.503Z,57.30
2023-09-27T23:47:50.676Z,57.01
2023-09-27T23:50:18.305Z,57.11
2023-09-27T23:52:48.369Z,57.16
2023-09-27T23:55:17.183Z,57.00
2023-09-27T23:57:50.593Z,57.01
